Altamira, Brazil

7:58 AM AMT on September 20, 2014 (GMT -0400)
Altamira | Change Station
CLOSE
Current Station
Airport
Location: Altamira,
Elevation: 243 ft
Nearby Weather Stations

Elev 243 ft 3.20 °S, 52.20 °W | Updated 58 minutes ago

Mostly Cloudy
Mostly Cloudy
77 °F
Feels Like 77 °F
N
5
Wind Variable Wind from East

Today
High -- | Low -- °F
--% Chance of Precip.
Yesterday
High -- | Low -- °F
Precip. -- in
5:19 AM 5:25 PM
Waning Crescent, 13% visible
Pressure 29.95 in
Visibility 6.2 miles
Clouds Scattered Clouds 1000 ft
Mostly Cloudy 8000 ft
Dew Point 77 °F
Humidity 100%
Rainfall 0.00 in
Snow Depth Not available.
UV 1 out of 12
Pollen Not available.
Air Quality Not available.
Flu Activity Not available.
METAR SBHT 201100Z 08004KT 9999 SCT010 BKN080 25/25 Q1014

More Conditions Fewer Conditions

Pressure 29.95 in
Visibility 6.2 miles
Clouds Scattered Clouds 1000 ft
Mostly Cloudy 8000 ft
Dew Point 77 °F
Humidity 100%
Rainfall 0.00 in
Snow Depth Not available.
UV 1 out of 12
Pollen Not available.
Air Quality Not available.
Flu Activity Not available.
METAR SBHT 201100Z 08004KT 9999 SCT010 BKN080 25/25 Q1014

More Conditions Fewer Conditions

10-Day Weather Forecast

Almanac

Astronomy

Sep. 20, 2014 Rise Set
Actual Time 5:19 AM AMT 5:25 PM AMT
Civil Twilight 4:58 AM AMT 5:45 PM AMT
Nautical Twilight 4:34 AM AMT 6:10 PM AMT
Astronomical Twilight 4:10 AM AMT 6:34 PM AMT
Moon 2:34 AM AMT 2:49 PM AMT
Length of Visible Light 12h 47m
Length of Day
12h 06m
Tomorrow will be 0m 10s longer.
Waning Crescent, 13% of the Moon is Illuminated
Today
Waning Crescent
Sep 24
New
Oct 1
First Quarter
Oct 8
Full
Oct 15
Last Quarter

Yesterday's Extremes

Country Highs Country Lows

Community

WunderPhotos

Upload Photos

1,754,835 photos uploaded!

Nearby

Snow Depth

Not available.

Earthquake Activity

City Distance Mag. Time & Date
No recent earthquake activity has been reported nearby.
Minimum magnitude displayed is 2.5.

Coastal Water Temperatures

Place Temperature
No Stations Reporting

Nearby Weather Stations